Alvarado, Texas
Current Conditions -  °F | °C
As of 6:53 PM on Monday 22 Dec 2014 (Local Time) from KFWS Reporting Station
Broken Clouds Broken Clouds  
Wind Chill: 13°   Ceiling: 3000
Heat Index: 13°   Visibility: 10mi
Dew Point:   Wind: 0mph
Humidity: 63%   Direction: NA
Pressure: 29.67"   Gusts: NA
Location:  32.41°N, 97.21°W
Report Text: KFWS 230053Z 00000KT 10SM BKN030 13/06 A2967
Loading
Personal Weather Stations






























Interactive Weather Map New forecast layout! Learn more

10-Day Weather Forecast

Advertisements
Track Severe Weather on mobile